Time;durP1;ratioP1;P1;durP2;ratioP2;P2;SDS_P1;SDS_P2;PMS_P1;PMS_P2;Temp;Humidity;BMP_temperature;BMP_pressure;BME280_temperature;BME280_humidity;BME280_pressure;Samples;Min_cycle;Max_cycle;Signal;HPM_P1;HPM_P2
2022/07/25 00:00:27;;;;;;;7.20;4.73;;;17.80;99.90;;;;;;5016316;28;20266;-83
2022/07/25 00:02:53;;;;;;;7.10;4.47;;;17.70;99.90;;;;;;4999883;28;20222;-86
2022/07/25 00:05:21;;;;;;;7.93;5.40;;;17.80;99.90;;;;;;5033893;28;20282;-87
2022/07/25 00:07:48;;;;;;;5.13;4.60;;;17.70;99.90;;;;;;5015886;28;20338;-86
2022/07/25 00:10:23;;;;;;;6.07;4.80;;;17.60;99.90;;;;;;5016020;28;20668;-85
2022/07/25 00:12:50;;;;;;;7.70;5.20;;;17.60;99.90;;;;;;5016009;28;20261;-87
2022/07/25 00:15:17;;;;;;;7.00;4.83;;;17.60;99.90;;;;;;5016108;28;20234;-83
2022/07/25 00:17:44;;;;;;;7.80;5.10;;;17.60;99.90;;;;;;5033638;28;20255;-83
2022/07/25 00:20:11;;;;;;;7.03;4.77;;;17.60;99.90;;;;;;5016053;28;20231;-83
2022/07/25 00:22:38;;;;;;;6.23;4.97;;;17.50;99.90;;;;;;5016349;28;20731;-84
2022/07/25 00:25:05;;;;;;;6.03;4.83;;;17.50;99.90;;;;;;5016234;28;20294;-85
2022/07/25 00:27:32;;;;;;;7.07;4.53;;;17.50;99.90;;;;;;5015942;28;20663;-82
2022/07/25 00:29:59;;;;;;;8.63;4.93;;;17.50;99.90;;;;;;5015905;28;20206;-85
2022/07/25 00:32:26;;;;;;;5.37;4.57;;;17.50;99.90;;;;;;5015847;28;20227;-85
2022/07/25 00:34:53;;;;;;;5.73;5.07;;;17.60;99.90;;;;;;5015651;28;20219;-84
2022/07/25 00:37:21;;;;;;;8.20;4.77;;;17.60;99.90;;;;;;5015527;28;20250;-83
2022/07/25 00:39:47;;;;;;;7.60;4.70;;;17.70;99.90;;;;;;5015711;28;20227;-84
2022/07/25 00:42:15;;;;;;;6.37;4.80;;;17.60;99.90;;;;;;5015456;28;20199;-85
2022/07/25 00:44:42;;;;;;;10.93;5.10;;;17.60;99.90;;;;;;5015583;28;20209;-83
2022/07/25 00:47:09;;;;;;;6.20;5.13;;;17.50;99.90;;;;;;5033284;28;20695;-84
2022/07/25 00:49:36;;;;;;;6.10;4.60;;;17.50;99.90;;;;;;4999282;28;20274;-83
2022/07/25 00:52:04;;;;;;;7.73;4.80;;;17.50;99.90;;;;;;5015106;28;20293;-84
2022/07/25 00:54:31;;;;;;;7.37;5.23;;;17.60;99.90;;;;;;5015756;28;20243;-85
2022/07/25 00:57:01;;;;;;;7.50;4.90;;;17.50;99.90;;;;;;4999683;28;20227;-83
2022/07/25 00:59:28;;;;;;;6.43;5.03;;;17.50;99.90;;;;;;5015494;28;20295;-84
2022/07/25 01:01:55;;;;;;;7.20;4.50;;;17.50;99.90;;;;;;5014636;28;20246;-82
2022/07/25 01:04:22;;;;;;;7.93;4.97;;;17.60;99.90;;;;;;5015604;28;20226;-84
2022/07/25 01:07:13;;;;;;;7.13;5.13;;;17.50;99.90;;;;;;5014913;28;20207;-83
2022/07/25 01:09:40;;;;;;;6.93;4.97;;;17.50;99.90;;;;;;5015332;28;20243;-86
2022/07/25 01:12:07;;;;;;;7.60;4.57;;;17.40;99.90;;;;;;5015443;28;20283;-85
2022/07/25 01:14:35;;;;;;;6.33;4.90;;;17.30;99.90;;;;;;5033075;28;20680;-86
2022/07/25 01:17:03;;;;;;;7.30;5.07;;;17.50;99.90;;;;;;5015199;28;20247;-85
2022/07/25 01:19:30;;;;;;;6.13;5.13;;;17.30;99.90;;;;;;5015301;28;20642;-84
2022/07/25 01:21:57;;;;;;;7.43;5.23;;;17.30;99.90;;;;;;5014787;28;20203;-87
2022/07/25 01:24:23;;;;;;;7.67;4.90;;;17.20;99.90;;;;;;5015102;28;20227;-83
2022/07/25 01:26:51;;;;;;;6.47;5.07;;;17.10;99.90;;;;;;5032649;28;20195;-81
2022/07/25 01:29:18;;;;;;;7.13;5.47;;;17.10;99.90;;;;;;5014975;28;20227;-82
2022/07/25 01:31:45;;;;;;;6.00;5.00;;;17.10;99.90;;;;;;5015152;28;20242;-84
2022/07/25 01:34:12;;;;;;;7.40;5.13;;;17.10;99.90;;;;;;5015078;28;20242;-84
2022/07/25 01:36:38;;;;;;;7.40;5.60;;;17.10;99.90;;;;;;5015006;28;20200;-84
2022/07/25 01:39:05;;;;;;;7.13;5.47;;;17.10;99.90;;;;;;5032581;28;20195;-83
2022/07/25 01:41:32;;;;;;;7.23;5.50;;;17.00;99.90;;;;;;5014799;28;20226;-83
2022/07/25 01:43:59;;;;;;;7.70;5.70;;;17.00;99.90;;;;;;5014892;28;20195;-81
2022/07/25 01:46:26;;;;;;;8.90;5.40;;;17.00;99.90;;;;;;5032635;28;20536;-82
2022/07/25 01:48:54;;;;;;;8.20;5.50;;;16.90;99.90;;;;;;5014611;28;20199;-83
2022/07/25 01:51:21;;;;;;;6.90;5.60;;;16.80;99.90;;;;;;5015025;28;20196;-83
2022/07/25 01:53:47;;;;;;;7.57;5.53;;;16.80;99.90;;;;;;5014667;28;20235;-83
2022/07/25 01:56:14;;;;;;;8.37;5.40;;;16.80;99.90;;;;;;5032359;28;20215;-83
2022/07/25 01:58:41;;;;;;;7.93;5.60;;;16.70;99.90;;;;;;5014638;28;20294;-83
2022/07/25 02:01:08;;;;;;;9.43;6.10;;;16.70;99.90;;;;;;5014501;28;20668;-84
2022/07/25 02:03:41;;;;;;;8.87;6.00;;;16.70;99.90;;;;;;5032347;28;20274;-86
2022/07/25 02:06:08;;;;;;;10.30;5.67;;;16.70;99.90;;;;;;5032256;28;20290;-87
2022/07/25 02:08:35;;;;;;;7.33;5.67;;;16.60;99.90;;;;;;5032355;28;20228;-86
2022/07/25 02:11:02;;;;;;;7.77;5.87;;;16.50;99.90;;;;;;5014849;28;20206;-84
2022/07/25 02:13:29;;;;;;;7.83;5.87;;;16.50;99.90;;;;;;5017114;28;20633;-84
2022/07/25 02:15:56;;;;;;;8.43;6.00;;;16.50;99.90;;;;;;5001986;28;20203;-84
2022/07/25 02:18:23;;;;;;;7.43;5.67;;;16.50;99.90;;;;;;5018151;28;20292;-83
2022/07/25 02:20:53;;;;;;;6.30;5.43;;;16.50;99.90;;;;;;5018064;28;20646;-83
2022/07/25 02:23:20;;;;;;;10.40;5.90;;;16.50;99.90;;;;;;5018006;28;20196;-87
2022/07/25 02:25:47;;;;;;;6.57;5.00;;;16.40;99.90;;;;;;5018044;28;20202;-86
2022/07/25 02:28:13;;;;;;;8.07;6.00;;;16.40;99.90;;;;;;5035593;28;20566;-84
2022/07/25 02:30:41;;;;;;;10.93;5.77;;;16.40;99.90;;;;;;5035726;28;20291;-85
2022/07/25 02:33:08;;;;;;;10.43;6.07;;;16.40;99.90;;;;;;5017671;28;20199;-84
2022/07/25 02:35:35;;;;;;;8.30;6.00;;;16.40;99.90;;;;;;5018009;28;20234;-86
2022/07/25 02:38:01;;;;;;;9.60;6.20;;;16.40;99.90;;;;;;5018182;28;20200;-84
2022/07/25 02:40:28;;;;;;;11.27;6.23;;;16.30;99.90;;;;;;5017768;28;20318;-86
2022/07/25 02:42:56;;;;;;;9.13;6.30;;;16.30;99.90;;;;;;5017543;28;20250;-85
2022/07/25 02:45:23;;;;;;;10.93;7.40;;;16.30;99.90;;;;;;5017729;28;20207;-85
2022/07/25 02:47:53;;;;;;;7.80;6.67;;;16.30;99.90;;;;;;5001116;28;20632;-86
2022/07/25 02:50:34;;;;;;;12.40;7.20;;;16.20;99.90;;;;;;5017402;28;20644;-85
2022/07/25 02:53:02;;;;;;;11.13;6.60;;;16.10;99.90;;;;;;5017490;28;20656;-84
2022/07/25 02:55:38;;;;;;;9.07;6.70;;;16.10;99.90;;;;;;5017786;28;20635;-85
2022/07/25 02:58:05;;;;;;;10.33;7.23;;;16.10;99.90;;;;;;5017692;28;20298;-87
2022/07/25 03:00:46;;;;;;;9.83;6.97;;;16.10;99.90;;;;;;5018181;28;20683;-84
2022/07/25 03:03:23;;;;;;;8.93;7.00;;;16.00;99.90;;;;;;5002538;28;20622;-86
2022/07/25 03:05:51;;;;;;;11.57;7.10;;;16.10;99.90;;;;;;5017404;28;20294;-82
2022/07/25 03:08:18;;;;;;;9.83;7.00;;;16.10;99.90;;;;;;5017340;28;20250;-85
2022/07/25 03:10:45;;;;;;;9.47;6.67;;;16.10;99.90;;;;;;5017130;28;20203;-82
2022/07/25 03:13:12;;;;;;;9.50;7.10;;;16.10;99.90;;;;;;5016959;28;20210;-85
2022/07/25 03:15:39;;;;;;;9.87;6.73;;;16.10;99.90;;;;;;5017110;28;20735;-84
2022/07/25 03:20:51;;;;;;;10.57;6.93;;;16.20;99.90;;;;;;4285950;26;20263;-84
2022/07/25 03:23:18;;;;;;;8.43;6.50;;;16.20;99.90;;;;;;4995134;28;20280;-85
2022/07/25 03:25:45;;;;;;;11.83;7.03;;;16.30;99.90;;;;;;4993935;28;20284;-85
2022/07/25 03:28:12;;;;;;;10.93;7.73;;;16.30;99.90;;;;;;5046661;23;20691;-84
2022/07/25 03:30:45;;;;;;;9.77;7.07;;;16.40;99.90;;;;;;5017118;28;20214;-82
2022/07/25 03:33:12;;;;;;;11.63;7.20;;;16.30;99.90;;;;;;5016630;28;20644;-82
2022/07/25 03:35:39;;;;;;;11.30;7.80;;;16.40;99.90;;;;;;5016825;28;20192;-82
2022/07/25 03:38:06;;;;;;;9.37;7.07;;;16.50;99.90;;;;;;5034636;28;20184;-84
2022/07/25 03:40:34;;;;;;;11.50;8.17;;;16.50;99.90;;;;;;5034204;28;20824;-84
2022/07/25 03:43:04;;;;;;;9.80;7.30;;;16.60;99.90;;;;;;5017429;28;20234;-85
2022/07/25 03:45:31;;;;;;;9.20;7.40;;;16.60;99.90;;;;;;5016345;28;20605;-84
2022/07/25 03:47:58;;;;;;;13.63;8.07;;;16.60;99.90;;;;;;5000461;28;20206;-83
2022/07/25 03:50:25;;;;;;;11.57;7.10;;;16.60;99.90;;;;;;5034304;28;20211;-85
2022/07/25 03:52:52;;;;;;;12.67;7.43;;;16.70;99.90;;;;;;5033955;28;20205;-85
2022/07/25 03:55:19;;;;;;;9.37;6.73;;;16.70;99.90;;;;;;5016711;28;20256;-86
2022/07/25 03:57:47;;;;;;;10.87;7.10;;;16.80;99.90;;;;;;5016744;28;20203;-83
2022/07/25 04:00:14;;;;;;;9.37;7.10;;;16.90;99.90;;;;;;5016194;28;20551;-83
2022/07/25 04:02:41;;;;;;;12.13;7.30;;;16.90;99.90;;;;;;5049408;28;20200;-83
2022/07/25 04:05:09;;;;;;;11.47;6.97;;;17.00;99.90;;;;;;5049478;28;20612;-84
2022/07/25 04:07:36;;;;;;;18.30;7.50;;;17.00;99.90;;;;;;5053461;28;20720;-83
2022/07/25 04:10:05;;;;;;;12.43;6.63;;;17.10;99.90;;;;;;5016078;28;20302;-83
2022/07/25 04:12:32;;;;;;;10.10;7.40;;;17.20;99.90;;;;;;5033744;28;20191;-83
2022/07/25 04:14:59;;;;;;;11.40;7.37;;;17.30;99.90;;;;;;5020040;28;20290;-84
2022/07/25 04:17:26;;;;;;;8.43;6.37;;;17.30;99.90;;;;;;4999577;28;20533;-82
2022/07/25 04:19:53;;;;;;;10.57;7.23;;;17.40;99.90;;;;;;5017410;28;20238;-82
2022/07/25 04:22:23;;;;;;;10.20;6.53;;;17.50;99.90;;;;;;5017954;28;20224;-84
2022/07/25 04:24:53;;;;;;;8.60;6.30;;;17.50;99.90;;;;;;5016767;28;20302;-83
2022/07/25 04:27:20;;;;;;;7.07;5.80;;;17.70;99.90;;;;;;4999495;28;20195;-85
2022/07/25 04:29:50;;;;;;;9.03;6.07;;;17.60;99.90;;;;;;5016053;28;20203;-83
2022/07/25 04:32:18;;;;;;;9.03;6.30;;;17.70;99.90;;;;;;5015609;28;20195;-84
2022/07/25 04:35:01;;;;;;;11.57;6.23;;;17.70;99.90;;;;;;5015824;28;20199;-84
2022/07/25 04:37:37;;;;;;;6.80;5.20;;;17.70;99.90;;;;;;5015113;28;20210;-84
2022/07/25 04:40:05;;;;;;;8.10;5.60;;;17.90;99.90;;;;;;5015855;28;20625;-85
2022/07/25 04:42:32;;;;;;;7.33;4.83;;;18.00;99.90;;;;;;5015646;28;20238;-85
2022/07/25 04:44:59;;;;;;;7.37;4.90;;;17.90;99.90;;;;;;5015632;28;20298;-85
2022/07/25 04:47:25;;;;;;;8.53;5.10;;;18.00;99.90;;;;;;5033144;28;20596;-84
2022/07/25 04:49:54;;;;;;;7.10;4.63;;;18.00;99.90;;;;;;5015940;28;20227;-85
2022/07/25 04:52:41;;;;;;;7.53;4.70;;;18.10;99.90;;;;;;5015491;28;20226;-85
2022/07/25 04:55:09;;;;;;;6.40;4.27;;;18.10;99.90;;;;;;4918241;29;20625;-84
2022/07/25 04:57:37;;;;;;;5.60;4.50;;;18.20;99.90;;;;;;4933808;29;20214;-85
2022/07/25 05:00:08;;;;;;;4.87;3.90;;;18.30;99.90;;;;;;4934779;29;20199;-89
2022/07/25 05:02:36;;;;;;;7.33;4.70;;;18.20;99.90;;;;;;4934392;29;20246;-85
2022/07/25 05:05:07;;;;;;;5.20;4.10;;;18.20;99.90;;;;;;4934953;29;20593;-89
2022/07/25 05:07:47;;;;;;;11.20;4.93;;;18.20;99.90;;;;;;4920555;29;20245;-85
2022/07/25 05:10:14;;;;;;;4.70;3.90;;;18.40;99.90;;;;;;4934149;29;20207;-88
2022/07/25 05:12:47;;;;;;;5.37;4.00;;;18.30;99.90;;;;;;4918887;29;20241;-90
2022/07/25 05:15:18;;;;;;;5.37;3.83;;;18.40;99.90;;;;;;4934127;29;20211;-84
2022/07/25 05:17:45;;;;;;;4.80;3.57;;;18.30;99.90;;;;;;4917778;29;20250;-87
2022/07/25 05:20:14;;;;;;;5.00;3.70;;;18.50;99.90;;;;;;4933959;29;20297;-85
2022/07/25 05:22:49;;;;;;;4.43;3.43;;;18.60;99.90;;;;;;4933382;29;20699;-83
2022/07/25 05:25:17;;;;;;;4.67;3.30;;;18.70;99.90;;;;;;4934814;29;20214;-83
2022/07/25 05:27:44;;;;;;;5.80;3.57;;;18.70;99.90;;;;;;4929344;29;20318;-88
2022/07/25 05:30:13;;;;;;;5.57;3.80;;;18.70;99.90;;;;;;4915461;29;20705;-88
2022/07/25 05:32:41;;;;;;;5.33;3.77;;;18.70;99.90;;;;;;4981573;28;20200;-88
2022/07/25 05:35:08;;;;;;;7.03;4.33;;;18.80;99.90;;;;;;5000804;28;20728;-86
2022/07/25 05:37:38;;;;;;;4.30;3.90;;;18.80;99.90;;;;;;5001986;28;20200;-86
2022/07/25 05:40:06;;;;;;;6.20;4.20;;;18.90;99.90;;;;;;5015146;28;20188;-89
2022/07/25 05:42:36;;;;;;;5.67;4.10;;;19.00;99.90;;;;;;5021181;28;20207;-85
2022/07/25 05:45:03;;;;;;;6.00;3.80;;;19.10;99.90;;;;;;4997476;28;20196;-86
2022/07/25 05:47:30;;;;;;;4.70;3.70;;;19.10;99.90;;;;;;5015585;28;20208;-89
2022/07/25 05:49:58;;;;;;;7.77;4.03;;;19.20;99.90;;;;;;4999480;28;20231;-90
2022/07/25 05:52:25;;;;;;;4.97;3.50;;;19.20;99.90;;;;;;4999153;28;20204;-87
2022/07/25 05:54:52;;;;;;;13.77;4.07;;;19.30;99.90;;;;;;4999960;28;20295;-83
2022/07/25 05:57:19;;;;;;;4.93;3.67;;;19.40;99.90;;;;;;4999669;28;20246;-89
2022/07/25 05:59:46;;;;;;;4.70;3.30;;;19.50;99.90;;;;;;5016678;28;20224;-87
2022/07/25 06:02:13;;;;;;;6.30;3.23;;;19.60;99.90;;;;;;4998987;28;20322;-86
2022/07/25 06:04:40;;;;;;;5.17;3.33;;;19.60;99.90;;;;;;4999310;28;20216;-84
2022/07/25 06:07:07;;;;;;;5.07;3.20;;;19.80;99.90;;;;;;4999091;28;20639;-85
2022/07/25 06:09:37;;;;;;;4.80;3.30;;;19.70;99.90;;;;;;4998759;28;20204;-84
2022/07/25 06:12:04;;;;;;;4.23;3.30;;;19.70;99.90;;;;;;4998800;28;20279;-85
2022/07/25 06:14:52;;;;;;;12.17;4.27;;;19.80;99.90;;;;;;4999629;28;20454;-86
2022/07/25 06:17:19;;;;;;;5.47;3.33;;;19.80;99.90;;;;;;4983103;23;20226;-89
2022/07/25 06:19:46;;;;;;;5.43;3.73;;;20.00;99.90;;;;;;5045300;23;20239;-88
2022/07/25 06:22:31;;;;;;;7.10;3.73;;;19.90;99.90;;;;;;5029578;23;20628;-88
2022/07/25 06:25:08;;;;;;;7.87;3.50;;;19.90;99.90;;;;;;5043363;23;20706;-90
2022/07/25 06:27:42;;;;;;;5.30;3.57;;;20.00;99.90;;;;;;5044977;28;20194;-89
2022/07/25 06:30:11;;;;;;;4.63;3.50;;;20.00;99.90;;;;;;5038432;28;20274;-88
2022/07/25 06:32:48;;;;;;;4.90;3.43;;;20.10;99.90;;;;;;5038571;28;20297;-88
2022/07/25 06:38:02;;;;;;;4.27;3.40;;;20.40;99.90;;;;;;4958652;28;20218;-86
2022/07/25 06:40:31;;;;;;;4.30;3.10;;;20.50;99.90;;;;;;4975463;28;20236;-86
2022/07/25 06:42:58;;;;;;;4.77;3.20;;;20.60;99.90;;;;;;5024933;23;20668;-85
2022/07/25 06:45:25;;;;;;;3.50;3.00;;;20.50;99.90;;;;;;4998022;28;20732;-79
2022/07/25 06:47:54;;;;;;;5.60;3.13;;;20.40;99.90;;;;;;4998637;28;20282;-83
2022/07/25 06:50:21;;;;;;;5.63;3.37;;;20.50;99.90;;;;;;4998156;28;20632;-79
2022/07/25 06:52:49;;;;;;;4.70;3.07;;;20.40;99.90;;;;;;4998208;28;20235;-82
2022/07/25 06:55:22;;;;;;;5.67;3.20;;;20.50;99.90;;;;;;4989987;28;20219;-80
2022/07/25 06:57:49;;;;;;;4.77;3.00;;;20.60;99.90;;;;;;4997852;28;20569;-84
2022/07/25 07:00:16;;;;;;;4.63;3.20;;;20.80;99.90;;;;;;5014757;28;20215;-79
2022/07/25 07:03:00;;;;;;;4.87;2.93;;;20.90;99.90;;;;;;4997699;28;20220;-82
2022/07/25 07:05:30;;;;;;;3.80;3.20;;;20.90;99.90;;;;;;5016069;28;20196;-76
2022/07/25 07:07:58;;;;;;;5.00;3.10;;;21.00;99.90;;;;;;5016268;28;20177;-81
2022/07/25 07:10:31;;;;;;;5.43;3.17;;;21.00;99.90;;;;;;4998418;28;20247;-80
2022/07/25 07:13:09;;;;;;;5.07;3.00;;;21.10;99.90;;;;;;4998276;28;20228;-80
2022/07/25 07:15:37;;;;;;;3.60;2.83;;;21.20;99.90;;;;;;5015907;28;20773;-81
2022/07/25 07:18:05;;;;;;;4.90;2.90;;;21.30;99.90;;;;;;4965835;28;20252;-84
2022/07/25 07:20:33;;;;;;;4.07;2.90;;;21.30;99.90;;;;;;4979278;28;20282;-85
2022/07/25 07:23:00;;;;;;;3.73;2.70;;;21.10;99.90;;;;;;4978905;28;20229;-89
2022/07/25 07:25:27;;;;;;;3.87;3.00;;;21.20;99.90;;;;;;4962775;28;20197;-88
2022/07/25 07:27:54;;;;;;;3.63;2.90;;;21.30;99.90;;;;;;4995686;28;20201;-89
2022/07/25 07:30:28;;;;;;;5.43;3.23;;;21.40;99.90;;;;;;4958674;28;20208;-79
2022/07/25 07:33:24;;;;;;;6.20;3.80;;;21.60;99.90;;;;;;5034652;23;20301;-85
2022/07/25 07:35:51;;;;;;;4.13;2.97;;;21.90;99.90;;;;;;5018404;28;20652;-84
2022/07/25 07:38:18;;;;;;;4.50;3.03;;;21.90;99.90;;;;;;5018105;28;20231;-82
2022/07/25 07:40:44;;;;;;;4.67;3.33;;;22.10;99.90;;;;;;5017563;28;20306;-81
2022/07/25 07:43:16;;;;;;;4.17;2.80;;;22.20;99.90;;;;;;5017675;28;20672;-81
2022/07/25 07:45:43;;;;;;;4.53;2.83;;;22.30;99.90;;;;;;5018507;28;20200;-83
2022/07/25 07:48:10;;;;;;;5.40;2.90;;;22.40;99.90;;;;;;5035220;28;20195;-81
2022/07/25 07:50:37;;;;;;;3.47;2.83;;;22.50;99.90;;;;;;5016622;28;20732;-82
2022/07/25 07:53:05;;;;;;;6.90;3.37;;;22.60;99.90;;;;;;5034500;28;20542;-83
2022/07/25 07:55:45;;;;;;;4.50;2.87;;;22.80;99.90;;;;;;5033354;28;20645;-77
2022/07/25 07:58:14;;;;;;;5.37;2.93;;;22.70;99.90;;;;;;5033947;28;20195;-84
2022/07/25 08:00:46;;;;;;;3.80;2.80;;;22.70;99.90;;;;;;5016046;28;20231;-86
2022/07/25 08:03:22;;;;;;;3.17;2.63;;;22.60;99.90;;;;;;5016223;28;20767;-78
2022/07/25 08:05:55;;;;;;;7.33;3.13;;;22.40;99.90;;;;;;5016427;28;20195;-81
2022/07/25 08:08:23;;;;;;;5.43;2.80;;;22.40;99.90;;;;;;5032744;28;20567;-79
2022/07/25 08:10:59;;;;;;;4.77;2.90;;;22.00;99.90;;;;;;5015728;28;20195;-82
2022/07/25 08:13:36;;;;;;;3.67;3.07;;;21.90;99.90;;;;;;5033793;28;20180;-82
2022/07/25 08:16:04;;;;;;;3.97;2.83;;;22.10;99.90;;;;;;5016863;28;20624;-87
2022/07/25 08:18:32;;;;;;;5.90;3.20;;;22.20;99.90;;;;;;5018073;28;20195;-84
2022/07/25 08:21:05;;;;;;;5.93;3.13;;;22.40;99.90;;;;;;5017190;28;20199;-85
2022/07/25 08:23:37;;;;;;;4.60;2.80;;;22.70;99.90;;;;;;4999702;28;20207;-85
2022/07/25 08:32:55;;;;;;;4.20;3.30;;;24.80;99.90;;;;;;4965687;23;20224;-83
2022/07/25 08:35:24;;;;;;;5.15;3.90;;;25.40;99.90;;;;;;4940258;28;20213;-75
2022/07/25 08:37:51;;;;;;;3.90;3.38;;;26.00;99.90;;;;;;4957163;28;20193;-81
2022/07/25 08:40:20;;;;;;;7.88;3.63;;;26.40;99.90;;;;;;4957338;28;20727;-81
2022/07/25 08:42:48;;;;;;;5.82;3.40;;;26.80;99.90;;;;;;4974032;28;20212;-76
2022/07/25 08:45:18;;;;;;;4.35;2.80;;;26.90;99.90;;;;;;4974427;28;20264;-77
2022/07/25 08:47:46;;;;;;;3.00;2.55;;;27.60;99.90;;;;;;4957189;28;20750;-80
2022/07/25 08:50:16;;;;;;;2.75;2.40;;;28.20;99.90;;;;;;4974406;28;20205;-77
2022/07/25 08:52:48;;;;;;;4.22;2.72;;;28.60;99.90;;;;;;4972916;28;20228;-76
2022/07/25 08:55:19;;;;;;;5.28;2.42;;;29.00;99.90;;;;;;4973075;28;20197;-76
2022/07/25 08:57:53;;;;;;;3.33;2.85;;;28.90;99.90;;;;;;4956965;28;20240;-81
2022/07/25 09:00:25;;;;;;;4.57;3.42;;;28.50;99.90;;;;;;4956899;28;20197;-73
2022/07/25 09:02:58;;;;;;;3.20;2.90;;;28.40;99.90;;;;;;4956842;28;20260;-82
2022/07/25 09:05:27;;;;;;;3.80;2.80;;;28.70;99.90;;;;;;4973236;28;20723;-84
2022/07/25 09:07:55;;;;;;;3.25;2.60;;;28.20;99.80;;;;;;4956442;28;20235;-80
2022/07/25 09:10:27;;;;;;;3.45;2.70;;;27.90;99.90;;;;;;4956626;28;20242;-78
2022/07/25 09:13:00;;;;;;;3.28;2.70;;;28.20;99.90;;;;;;4956823;28;20193;-78
2022/07/25 09:15:35;;;;;;;3.40;2.70;;;28.40;99.80;;;;;;4956826;28;20329;-84
2022/07/25 09:18:13;;;;;;;3.05;2.75;;;28.90;98.10;;;;;;4941371;29;20229;-73
2022/07/25 09:20:48;;;;;;;4.20;2.88;;;28.70;97.10;;;;;;4953383;29;20198;-80
2022/07/25 09:23:36;;;;;;;4.00;2.85;;;28.80;98.00;;;;;;4955643;28;20253;-81
2022/07/25 09:26:11;;;;;;;4.68;3.08;;;28.80;97.30;;;;;;4957535;29;20289;-74
2022/07/25 09:28:52;;;;;;;3.47;2.70;;;28.50;97.10;;;;;;4957486;29;20300;-77
2022/07/25 09:31:19;;;;;;;3.88;2.97;;;28.40;97.00;;;;;;4957911;29;20210;-80
2022/07/25 09:33:58;;;;;;;4.80;2.92;;;28.50;96.10;;;;;;4958527;29;20226;-73
2022/07/25 09:36:25;;;;;;;3.55;2.95;;;28.70;95.80;;;;;;4941511;29;20232;-74
2022/07/25 09:38:55;;;;;;;4.68;3.00;;;28.40;95.60;;;;;;4941373;29;20230;-76
2022/07/25 09:41:33;;;;;;;3.72;3.10;;;28.20;95.50;;;;;;4957239;29;20227;-73
2022/07/25 09:44:00;;;;;;;5.45;3.10;;;28.40;96.50;;;;;;4956953;29;20289;-78
2022/07/25 09:46:30;;;;;;;3.80;3.15;;;28.30;95.50;;;;;;4956888;29;20201;-77
2022/07/25 09:48:59;;;;;;;3.55;3.08;;;27.60;95.90;;;;;;4957255;29;20253;-78
2022/07/25 09:51:27;;;;;;;3.20;2.90;;;28.00;96.20;;;;;;4957317;29;20191;-76
2022/07/25 09:53:54;;;;;;;3.60;2.95;;;28.50;96.50;;;;;;4940966;29;20633;-75
2022/07/25 09:56:21;;;;;;;3.85;2.85;;;28.90;94.80;;;;;;4950598;29;20186;-83
2022/07/25 09:58:49;;;;;;;3.42;3.03;;;28.60;95.40;;;;;;4956929;29;20296;-78
2022/07/25 10:01:24;;;;;;;4.63;2.92;;;28.60;95.80;;;;;;4957024;28;20664;-78
2022/07/25 10:04:20;;;;;;;4.20;3.13;;;29.10;95.00;;;;;;4940864;29;20217;-77
2022/07/25 10:07:04;;;;;;;5.68;3.00;;;29.10;94.60;;;;;;4957796;29;20221;-76
2022/07/25 10:09:32;;;;;;;4.95;3.03;;;29.60;94.20;;;;;;4941106;29;20652;-72
2022/07/25 10:12:05;;;;;;;4.85;3.20;;;29.60;94.10;;;;;;4955897;29;20226;-77
2022/07/25 10:14:33;;;;;;;3.83;2.95;;;29.40;93.80;;;;;;4940563;29;20627;-75
2022/07/25 10:17:01;;;;;;;4.43;2.90;;;29.90;92.50;;;;;;4951562;28;20313;-75
2022/07/25 10:19:41;;;;;;;3.13;2.83;;;30.00;91.70;;;;;;4956044;29;20220;-75
2022/07/25 10:22:16;;;;;;;4.07;2.80;;;30.30;91.20;;;;;;4957347;29;20304;-77
2022/07/25 10:25:09;;;;;;;3.22;2.58;;;30.50;90.90;;;;;;4940685;29;20715;-74
2022/07/25 10:27:47;;;;;;;3.97;3.10;;;29.50;91.30;;;;;;4941682;29;20194;-73
2022/07/25 10:30:42;;;;;;;3.33;3.03;;;30.00;90.60;;;;;;4941099;29;20205;-74
2022/07/25 10:33:16;;;;;;;3.22;2.92;;;30.50;89.00;;;;;;4956778;28;20242;-75
2022/07/25 10:35:44;;;;;;;3.05;2.70;;;30.60;88.60;;;;;;4941068;29;20193;-75
2022/07/25 10:38:11;;;;;;;4.30;3.15;;;30.90;88.10;;;;;;4940814;29;20209;-79
2022/07/25 10:40:43;;;;;;;4.45;3.20;;;29.90;87.80;;;;;;4940145;29;20682;-71
2022/07/25 10:43:18;;;;;;;3.50;2.70;;;29.90;87.50;;;;;;4957272;29;20297;-73
2022/07/25 10:45:53;;;;;;;4.32;2.97;;;30.60;87.10;;;;;;4940414;29;20288;-74
2022/07/25 10:48:26;;;;;;;3.38;2.83;;;30.00;86.00;;;;;;4940381;29;20212;-73
2022/07/25 10:51:10;;;;;;;3.92;2.85;;;30.00;88.40;;;;;;4955694;29;20198;-75
2022/07/25 10:53:47;;;;;;;2.70;2.50;;;30.40;84.60;;;;;;4939031;29;20206;-75
2022/07/25 10:56:23;;;;;;;4.10;2.50;;;30.70;84.80;;;;;;4939151;29;20202;-75
2022/07/25 10:58:57;;;;;;;3.00;2.70;;;31.00;82.00;;;;;;4939511;29;20285;-76
2022/07/25 11:01:25;;;;;;;2.75;2.55;;;30.70;81.40;;;;;;4939824;29;20283;-76
2022/07/25 11:03:55;;;;;;;3.45;2.60;;;30.80;82.30;;;;;;4954632;28;20222;-76
2022/07/25 11:06:35;;;;;;;3.65;2.53;;;31.80;80.20;;;;;;4938981;29;20209;-73
2022/07/25 11:09:24;;;;;;;2.95;2.67;;;32.00;76.90;;;;;;4939947;29;20202;-75
2022/07/25 11:11:56;;;;;;;3.75;2.60;;;32.60;76.40;;;;;;4957029;29;20202;-75
2022/07/25 11:14:31;;;;;;;2.83;2.60;;;32.70;76.40;;;;;;4931922;29;20206;-74
2022/07/25 11:17:13;;;;;;;4.53;2.70;;;33.00;75.70;;;;;;4948127;28;20232;-69
2022/07/25 11:19:54;;;;;;;2.80;2.50;;;32.70;72.20;;;;;;4939594;29;20301;-72
2022/07/25 11:22:21;;;;;;;2.53;2.33;;;32.80;73.80;;;;;;4954914;29;20253;-76
2022/07/25 11:24:48;;;;;;;3.65;2.50;;;33.30;72.20;;;;;;4938754;29;20210;-77
2022/07/25 11:27:24;;;;;;;2.67;2.42;;;33.80;72.70;;;;;;4939334;29;20313;-76
2022/07/25 11:29:52;;;;;;;3.25;2.60;;;34.20;71.70;;;;;;4940670;29;20242;-74
2022/07/25 11:32:19;;;;;;;2.63;2.30;;;32.90;72.10;;;;;;4939891;29;20210;-74
2022/07/25 11:34:49;;;;;;;4.50;2.78;;;32.80;71.80;;;;;;4939845;29;20233;-74
2022/07/25 11:37:17;;;;;;;3.90;2.60;;;33.00;70.00;;;;;;4955535;29;20198;-72
2022/07/25 11:39:45;;;;;;;3.60;2.75;;;33.60;70.50;;;;;;4955024;29;20288;-72
2022/07/25 11:42:15;;;;;;;2.53;2.33;;;34.20;70.40;;;;;;4938903;29;20216;-72
2022/07/25 11:44:48;;;;;;;3.80;2.40;;;34.90;67.70;;;;;;4954756;28;20644;-73
2022/07/25 11:47:31;;;;;;;3.08;2.55;;;34.90;63.70;;;;;;4954735;29;20229;-73
2022/07/25 11:50:04;;;;;;;2.55;2.35;;;35.40;66.50;;;;;;4938837;29;20261;-72
2022/07/25 11:52:34;;;;;;;3.75;2.47;;;35.60;63.80;;;;;;4956041;29;20554;-74
2022/07/25 11:55:10;;;;;;;3.65;2.40;;;35.70;60.80;;;;;;4938593;29;20226;-72
2022/07/25 11:57:40;;;;;;;2.67;2.47;;;35.90;62.20;;;;;;4938560;29;20194;-71
2022/07/25 12:00:16;;;;;;;4.05;2.45;;;36.30;60.10;;;;;;4955857;29;20711;-73
2022/07/25 12:02:43;;;;;;;3.35;2.15;;;36.00;59.00;;;;;;4938221;29;20221;-74
2022/07/25 12:05:13;;;;;;;4.10;2.30;;;35.40;60.50;;;;;;4938639;29;20186;-72
2022/07/25 12:07:54;;;;;;;3.33;2.35;;;35.70;59.80;;;;;;4938725;29;20216;-71
2022/07/25 12:10:32;;;;;;;2.90;2.50;;;35.20;60.20;;;;;;4938886;29;20209;-72
2022/07/25 12:13:01;;;;;;;2.42;2.22;;;35.00;59.20;;;;;;4938423;29;20602;-72
2022/07/25 12:15:30;;;;;;;2.67;2.40;;;35.40;60.90;;;;;;4938235;29;20210;-72
2022/07/25 12:17:58;;;;;;;2.67;2.35;;;35.80;59.20;;;;;;4954162;29;20226;-73
2022/07/25 12:20:32;;;;;;;3.35;2.40;;;35.90;57.60;;;;;;4955602;29;20198;-71
2022/07/25 12:23:03;;;;;;;5.38;2.40;;;36.20;57.90;;;;;;4938037;29;20710;-71
2022/07/25 12:25:31;;;;;;;4.05;2.38;;;36.80;58.40;;;;;;4938332;29;20216;-73
2022/07/25 12:27:59;;;;;;;3.53;2.28;;;37.00;56.70;;;;;;4955583;29;20198;-73
2022/07/25 12:30:27;;;;;;;2.88;2.28;;;37.00;56.30;;;;;;4955190;29;20190;-72
2022/07/25 12:32:56;;;;;;;3.20;1.98;;;37.10;55.50;;;;;;4953735;29;20190;-74
2022/07/25 12:35:24;;;;;;;2.17;1.88;;;37.20;55.10;;;;;;4954126;29;20174;-72
2022/07/25 12:37:52;;;;;;;2.42;2.10;;;37.50;54.60;;;;;;4938191;29;20206;-73
2022/07/25 12:40:19;;;;;;;2.40;2.20;;;37.30;52.70;;;;;;4954122;29;20198;-71
2022/07/25 12:42:46;;;;;;;2.83;1.80;;;36.80;54.60;;;;;;4954950;29;20223;-73
2022/07/25 12:45:16;;;;;;;3.13;2.00;;;37.10;54.80;;;;;;4938029;29;20214;-73
2022/07/25 12:47:46;;;;;;;4.35;2.30;;;37.50;53.40;;;;;;4937637;29;20202;-74
2022/07/25 12:50:14;;;;;;;2.33;1.92;;;37.70;53.80;;;;;;4938159;29;20201;-71
2022/07/25 12:52:42;;;;;;;2.25;2.00;;;37.70;53.50;;;;;;4953889;29;20209;-72
2022/07/25 12:55:11;;;;;;;2.22;1.90;;;37.60;52.50;;;;;;4938156;29;20252;-73
2022/07/25 12:57:38;;;;;;;2.25;1.98;;;37.90;51.70;;;;;;4937426;29;20678;-75
2022/07/25 13:00:09;;;;;;;4.13;2.15;;;37.30;51.40;;;;;;4955161;29;20748;-73
2022/07/25 13:02:36;;;;;;;2.67;2.13;;;37.00;53.50;;;;;;4937517;29;20297;-73
2022/07/25 13:05:05;;;;;;;2.38;2.17;;;37.00;53.20;;;;;;4937751;29;20300;-73
2022/07/25 13:07:33;;;;;;;4.13;2.22;;;36.60;53.00;;;;;;4937585;29;20191;-75
2022/07/25 13:10:00;;;;;;;2.75;2.30;;;35.90;54.20;;;;;;4938550;29;20213;-76
2022/07/25 13:12:31;;;;;;;3.20;2.30;;;36.20;55.00;;;;;;4938824;29;20233;-78